• Join FlightAware (Why Join?)
  • Login
  • US Flag 
12:23PM EDT


 

Airport Tracker/Info


-or-


 

Live Flight TrackerFlight Track Log ✈ AAL1054 ✈ 25-Jun-2013 ✈ KTUS - KDFW

Flight Track Log - Related Links

Times and Time Zones

All times are in EDT time to prevent confusion due to time zone crossing. See the AAL1054 flight status page for this flight to view local times or setup timezone preferences in your user account.

Time Position Orientation Groundspeed Altitude Reporting Facility
EDT Latitude Longitude Course Direction KTS MPH feet Rate Location/Type
04:57PM 32.1292 -110.9581 76° East 178 205 3,600  Level Albuquerque Center
04:57PM 32.1622 -110.9944 317° Northwest 199 229 5,100 1,860 Climbing Albuquerque Center
04:58PM 32.2156 -111.0053 350° North 235 270 7,100 1,800 Climbing Albuquerque Center
04:59PM 31.9089 -110.6355 106° East  Level FlightAware Approximate
05:00PM 31.8872 -110.5105 100° East  Level FlightAware Approximate
05:00PM 32.2256 -110.9258 82° East 266 306 8,800  Level Albuquerque Center
05:01PM 31.9000 -110.3854 90° East  Level FlightAware Approximate
05:01PM 32.2142 -110.8289 98° East 297 342 10,500  Level Albuquerque Center
05:02PM 31.9227 -110.2609 76° East  Level FlightAware Approximate
05:02PM 32.2056 -110.7089 95° East 359 413 11,600  Level Albuquerque Center
05:03PM 32.1978 -110.5750 94° East 396 456 13,900 2,220 Climbing Albuquerque Center
05:04PM 32.1814 -110.4081 97° East 422 486 16,300 1,980 Climbing Albuquerque Center
05:05PM 32.1744 -110.2839 94° East 434 499 18,000 1,800 Climbing Albuquerque Center
05:06PM 32.1619 -110.1081 95° East 449 517 20,100 1,740 Climbing Albuquerque Center
05:07PM 32.1514 -109.9597 95° East 456 525 21,600 1,440 Climbing Albuquerque Center
05:08PM 32.1361 -109.8047 97° East 472 543 23,100 1,260 Climbing Albuquerque Center
05:09PM 32.1244 -109.6514 95° East 475 547 24,300 1,320 Climbing Albuquerque Center
05:10PM 32.1136 -109.4944 95° East 482 555 25,900 1,500 Climbing Albuquerque Center
05:11PM 32.0969 -109.3056 96° East 486 559 27,400 1,740 Climbing Albuquerque Center
05:12PM 32.0856 -109.1514 95° East 483 556 29,600 1,620 Climbing Albuquerque Center
05:13PM 32.0725 -109.0017 96° East 471 542 30,800 1,020 Climbing Albuquerque Center
05:14PM 32.0603 -108.8528 95° East 465 535 31,700 960 Climbing Albuquerque Center
05:15PM 32.0481 -108.7036 95° East 464 534 32,800 600 Climbing Albuquerque Center
05:16PM 32.0319 -108.5267 96° East 460 529 33,000 60 Climbing Albuquerque Center
05:17PM 32.0189 -108.3789 96° East 460 529 33,000  Level Albuquerque Center
05:18PM 32.0064 -108.2306 96° East 459 528 33,000  Level Albuquerque Center
05:19PM 31.9911 -108.0631 96° East 461 531 33,000 -60 Level Albuquerque Center
05:20PM 31.9772 -107.9133 96° East 462 532 32,900  Descending Albuquerque Center
05:21PM 31.9639 -107.7633 96° East 463 533 33,000  Climbing Albuquerque Center
05:22PM 31.9500 -107.6136 96° East 464 534 33,000  Level Albuquerque Center
05:23PM 31.9353 -107.4636 97° East 465 535 33,000  Level Albuquerque Center
05:24PM 31.9217 -107.3144 96° East 464 534 33,000  Level Albuquerque Center
05:25PM 31.9042 -107.1361 97° East 462 532 33,000  Level Albuquerque Center
05:26PM 31.8897 -106.9881 97° East 461 531 33,000  Level Albuquerque Center
05:27PM 31.8742 -106.8392 97° East 463 533 33,000  Level Albuquerque Center
05:28PM 31.8594 -106.6908 97° East 460 529 33,000  Level Albuquerque Center
05:29PM 31.8417 -106.5253 97° East 461 531 33,000  Level Albuquerque Center
05:30PM 31.8272 -106.3756 96° East 463 533 33,000  Level Albuquerque Center
05:31PM 31.8142 -106.2256 96° East 460 529 33,000 -60 Level Albuquerque Center
05:32PM 31.8058 -106.0783 94° East 456 525 32,900  Descending Albuquerque Center
05:33PM 31.7986 -105.9292 93° East 456 525 33,000  Climbing Albuquerque Center
05:35PM 31.7914 -105.7797 93° East 458 527 33,000  Level Albuquerque Center
05:36PM 31.7822 -105.6014 93° East 456 525 33,000  Level Albuquerque Center
05:37PM 31.7750 -105.4508 93° East 460 529 33,000 -60 Level Albuquerque Center
05:38PM 31.7689 -105.3014 93° East 460 529 32,900  Descending Albuquerque Center
05:39PM 31.7900 -105.1536 80° East 462 532 33,000  Climbing Albuquerque Center
05:40PM 31.8058 -105.0058 83° East 456 525 33,000  Level Albuquerque Center
05:41PM 31.8225 -104.8581 82° East 456 525 33,000  Level Albuquerque Center
05:42PM 31.8369 -104.7100 83° East 455 524 33,000 -60 Level Albuquerque Center
05:43PM 31.8528 -104.5597 83° East 460 529 32,900  Descending Albuquerque Center
05:44PM 31.8700 -104.3808 83° East 459 528 33,000  Climbing Albuquerque Center
05:45PM 31.8850 -104.2333 83° East 456 525 33,000  Level Albuquerque Center
05:46PM 31.9000 -104.0839 83° East 458 527 33,000  Level Albuquerque Center
05:47PM 31.9158 -103.9306 83° East 459 528 33,000  Level Albuquerque Center
05:48PM 31.9289 -103.7797 84° East 461 531 33,000  Level Albuquerque Center
05:49PM 31.9422 -103.6281 84° East 466 536 33,000  Level Albuquerque Center
05:50PM 31.9569 -103.4739 84° East 472 543 33,000  Level Albuquerque Center
05:51PM 31.9714 -103.2875 85° East 477 549 33,000  Level Albuquerque Center
05:52PM 31.9867 -103.1339 83° East 476 548 33,000  Level Albuquerque Center
05:53PM 31.9972 -103.0006 85° East 478 550 33,000  Level Fort Worth Center
05:54PM 32.0103 -102.8469 84° East 478 550 33,000  Level Fort Worth Center
05:55PM 32.0225 -102.7056 84° East 478 550 33,000  Level Fort Worth Center
05:56PM 32.0353 -102.5494 84° East 478 550 33,000  Level Fort Worth Center
05:57PM 32.0500 -102.3911 84° East 478 550 33,000  Level Fort Worth Center
05:58PM 32.0622 -102.2350 85° East 483 556 33,000  Level Fort Worth Center
05:59PM 32.0744 -102.0764 85° East 478 550 33,000  Level Fort Worth Center
06:00PM 32.0867 -101.9175 85° East 478 550 33,000  Level Fort Worth Center
06:01PM 32.0983 -101.7636 85° East 478 550 33,000  Level Fort Worth Center
06:02PM 32.1097 -101.6072 85° East 478 550 33,000  Level Fort Worth Center
06:03PM 32.1256 -101.4461 83° East 478 550 33,000  Level Fort Worth Center
06:04PM 32.1347 -101.2869 86° East 478 550 33,000  Level Fort Worth Center
06:05PM 32.1458 -101.1306 85° East 478 550 33,000  Level Fort Worth Center
06:06PM 32.1586 -100.9739 84° East 478 550 33,000  Level Fort Worth Center
06:07PM 32.1692 -100.8150 85° East 478 550 33,000  Level Fort Worth Center
06:08PM 32.1797 -100.6558 85° East 478 550 33,000  Level Fort Worth Center
06:09PM 32.1900 -100.4989 86° East 478 550 33,000  Level Fort Worth Center
06:10PM 32.2000 -100.3397 86° East 478 550 33,000  Level Fort Worth Center
06:11PM 32.2100 -100.1831 86° East 478 550 33,000  Level Fort Worth Center
06:12PM 32.2194 -100.0261 86° East 478 550 33,000  Level Fort Worth Center
06:13PM 32.2289 -99.8644 86° East 483 556 33,000  Level Fort Worth Center
06:14PM 32.2278 -99.7047 90° East 478 550 33,000  Level Fort Worth Center
06:15PM 32.2244 -99.5450 91° East 478 550 33,000  Level Fort Worth Center
06:16PM 32.2206 -99.3903 92° East 478 550 33,000  Level Fort Worth Center
06:17PM 32.2128 -99.2303 93° East 478 550 33,000  Level Fort Worth Center
06:18PM 32.2086 -99.0733 92° East 478 550 33,000  Level Fort Worth Center
06:19PM 32.2022 -98.9136 93° East 478 550 33,000 -960 Level Fort Worth Center
06:20PM 32.2144 -98.7567 85° East 478 550 31,100 -2,400 Descending Fort Worth Center
06:21PM 32.2411 -98.5900 79° East 471 542 28,300 -2,700 Descending Fort Worth Center
06:22PM 32.2594 -98.4256 82° East 484 557 25,700 -2,700 Descending Fort Worth Center
06:23PM 32.2753 -98.2611 83° East 495 570 23,000 -2,820 Descending Fort Worth Center
06:24PM 32.2928 -98.1089 82° East 487 560 20,100 -2,640 Descending Fort Worth Center
06:25PM 32.3081 -97.9614 83° East 461 531 17,800 -2,460 Descending Fort Worth Center
06:26PM 32.3233 -97.8189 83° East 450 518 15,300 -1,800 Descending Fort Worth Center
06:27PM 32.3339 -97.7208 83° East 404 465 14,200 -1,680 Descending Fort Worth Center
06:28PM 32.3969 -97.6003 58° Northeast 351 404 12,000 -1,620 Descending Fort Worth Center
06:29PM 32.4681 -97.5094 47° Northeast 370 426 11,000 -540 Descending Fort Worth Center
06:30PM 32.5431 -97.4183 46° Northeast 375 432 11,000 -60 Level Fort Worth Center
06:31PM 32.6167 -97.3333 44° Northeast 336 387 10,900  Descending Dallas / Fort Worth TRACON
06:32PM 32.6747 -97.2603 47° Northeast 324 373 11,000  Climbing Fort Worth Center
06:33PM 32.7308 -97.1936 45° Northeast 294 338 10,900 -180 Descending Fort Worth Center
06:34PM 32.7831 -97.1711 20° North 253 291 10,700 -840 Descending Fort Worth Center
06:35PM 32.8519 -97.1686 North 229 264 9,300 -1,560 Descending Fort Worth Center
06:36PM 32.9208 -97.1658 North 236 272 7,600 -1,560 Descending Fort Worth Center
06:37PM 32.9917 -97.1658 360° North 246 283 6,200 -1,440 Descending Fort Worth Center
06:38PM 33.0647 -97.1556 North 248 285 4,800 -1,200 Descending Fort Worth Center
06:39PM 33.1000 -97.0833 60° Northeast 199 229 3,700 -1,020 Descending Dallas / Fort Worth TRACON